メインページ
METAR-TAF:

METAR-TAF

空港 :

ホセ・マルティ国際空港

ハバナ, キューバ

緯度: 22-59N, 経度: 082-24W, 海抜: 59m

現時点の気象観測

当レポートは1時間5分前の22:55(UTC)に作成
無風
気温 25°C
湿度 83%
気圧 1017 hPa
視程: 9000m
高度2000ftの雲はほとんどない, 塔状積雲.
高度3000ftの雲は散在している

METAR: MUHA 162255Z 00000KT 9000 FEW020TCU SCT030 25/22 Q1017

時間: 20:00 (00:00 UTC)

予報

当レポートは1時間0分前の23:00(UTC)に作成
予報は17日の 00時(UTC)から 17日の 24時(UTC)まで有効
変向風 3kt
視程: 9000m
高度3000ftの雲はほとんどない
17日の 14時(UTC)から 17日の 16時(UTC)まで徐々に
の風 10kt
17日の 20時(UTC)から 17日の 24時(UTC)まで一時的に
変向風 10kt
視程: 5000m
高度2000ftの雲はほとんどない, 積乱雲.
高度2500ftの千切れ雲あり
にわか雨

TAF: MUHA 162300Z 1700/1724 VRB03KT 9000 FEW030 BECMG 1714/1716 09010KT TEMPO 1720/1724 VRB10KT 5000 SHRA FEW020CB BKN025

4,000以上の空港の気象観測と天気予報(METAR報とTAF報)

利用可能な観測所は地図上に黄色い丸と赤い丸で示す。

丸の上にカーソルを重ねると観測所名を参照できる。

次にクリックすると気象観測と天気予報を参照できる。

マップの切り替え:黒色「×」印の緑ボタンをクリックして拡大、「-」印の緑ボタンをクリックして縮小、緑色の三角印をクリックして隣りの地図に切り替え


METAR-TAF: